createdAt,value
2023-03-17T00:02:00.732Z,3.60
2023-03-17T00:04:29.424Z,5.00
2023-03-17T00:06:58.327Z,4.40
2023-03-17T00:09:27.012Z,3.80
2023-03-17T00:11:55.690Z,2.70
2023-03-17T00:14:24.685Z,2.50
2023-03-17T00:16:53.469Z,2.60
2023-03-17T00:19:33.839Z,3.70
2023-03-17T00:24:31.928Z,4.10
2023-03-17T00:27:02.969Z,5.40
2023-03-17T00:29:33.503Z,3.30
2023-03-17T00:32:02.599Z,4.70
2023-03-17T00:34:32.517Z,3.20
2023-03-17T00:37:02.206Z,4.80
2023-03-17T00:39:30.607Z,4.60
2023-03-17T00:42:00.011Z,4.70
2023-03-17T00:44:28.597Z,4.70
2023-03-17T00:46:58.737Z,4.30
2023-03-17T00:49:29.662Z,2.80
2023-03-17T00:51:58.036Z,4.50
2023-03-17T00:54:27.134Z,3.00
2023-03-17T00:56:55.616Z,2.90
2023-03-17T00:59:29.959Z,4.90
2023-03-17T01:01:58.473Z,3.70
2023-03-17T01:04:27.423Z,5.40
2023-03-17T01:06:58.766Z,3.70
2023-03-17T01:09:27.475Z,3.80
2023-03-17T01:11:55.989Z,4.50
2023-03-17T01:14:25.130Z,4.50
2023-03-17T01:16:53.514Z,4.00
2023-03-17T01:19:22.515Z,3.80
2023-03-17T01:21:51.117Z,4.00
2023-03-17T01:24:20.030Z,4.90
2023-03-17T01:26:48.575Z,3.00
2023-03-17T01:29:17.791Z,2.80
2023-03-17T01:31:47.980Z,4.60
2023-03-17T01:34:22.729Z,3.30
2023-03-17T01:36:51.826Z,3.50
2023-03-17T01:39:20.722Z,4.60
2023-03-17T01:42:09.482Z,3.80
2023-03-17T01:44:57.004Z,2.60
2023-03-17T01:47:25.765Z,5.00
2023-03-17T01:49:57.036Z,3.30
2023-03-17T01:52:25.427Z,3.10
2023-03-17T01:55:07.240Z,3.50
2023-03-17T01:57:53.670Z,4.10
2023-03-17T02:00:24.364Z,5.70
2023-03-17T02:02:55.826Z,3.00
2023-03-17T02:05:29.929Z,5.30
2023-03-17T02:07:59.150Z,4.40
2023-03-17T02:10:33.958Z,4.40
2023-03-17T02:13:05.893Z,6.20
2023-03-17T02:15:39.337Z,4.60
2023-03-17T02:18:08.371Z,5.30
2023-03-17T02:20:39.671Z,3.40
2023-03-17T02:23:12.068Z,2.80
2023-03-17T02:25:42.984Z,3.30
2023-03-17T02:28:17.103Z,4.40
2023-03-17T02:30:45.597Z,3.60
2023-03-17T02:33:17.751Z,1.90
2023-03-17T02:35:49.890Z,4.60
2023-03-17T02:38:19.635Z,3.00
2023-03-17T02:40:48.224Z,3.50
2023-03-17T02:43:17.113Z,1.70
2023-03-17T02:45:45.833Z,5.60
2023-03-17T02:48:16.245Z,1.80
2023-03-17T02:50:44.815Z,2.80
2023-03-17T02:53:18.421Z,4.80
2023-03-17T02:55:47.517Z,2.80
2023-03-17T02:58:15.901Z,3.80
2023-03-17T03:00:44.895Z,4.50
2023-03-17T03:03:14.035Z,2.80
2023-03-17T03:05:47.492Z,4.00
2023-03-17T03:08:17.315Z,3.30
2023-03-17T03:10:46.096Z,3.70
2023-03-17T03:13:16.219Z,3.20
2023-03-17T03:15:45.444Z,2.70
2023-03-17T03:18:14.038Z,6.50
2023-03-17T03:20:44.841Z,4.00
2023-03-17T03:23:14.098Z,6.20
2023-03-17T03:25:42.910Z,5.00
2023-03-17T03:28:12.753Z,5.30
2023-03-17T03:30:41.948Z,4.30
2023-03-17T03:33:10.944Z,2.10
2023-03-17T03:35:40.312Z,4.40
2023-03-17T03:38:14.056Z,4.20
2023-03-17T03:40:42.744Z,5.50
2023-03-17T03:43:22.337Z,4.40
2023-03-17T03:45:53.118Z,6.40
2023-03-17T03:48:22.114Z,3.50
2023-03-17T03:50:51.085Z,3.30
2023-03-17T03:53:20.510Z,5.50
2023-03-17T03:55:52.280Z,5.10
2023-03-17T03:58:21.164Z,4.00
2023-03-17T04:00:49.761Z,5.50
2023-03-17T04:03:18.336Z,5.10
2023-03-17T04:05:46.816Z,4.00
2023-03-17T04:08:18.476Z,5.70
2023-03-17T04:10:48.824Z,4.70
2023-03-17T04:13:17.280Z,5.10
2023-03-17T04:15:47.380Z,4.30
2023-03-17T04:18:17.117Z,4.20
2023-03-17T04:20:45.494Z,4.60
2023-03-17T04:23:14.091Z,4.00
2023-03-17T04:25:43.080Z,3.10
2023-03-17T04:30:43.007Z,4.10
2023-03-17T04:33:11.436Z,2.80
2023-03-17T04:35:39.881Z,4.00
2023-03-17T04:38:12.168Z,4.20
2023-03-17T04:40:41.144Z,2.90
2023-03-17T04:43:10.642Z,7.80
2023-03-17T04:45:39.143Z,3.20
2023-03-17T04:48:08.226Z,3.10
2023-03-17T04:50:37.422Z,4.60
2023-03-17T04:53:07.142Z,3.60
2023-03-17T04:55:36.436Z,3.10
2023-03-17T04:58:07.175Z,6.20
2023-03-17T05:00:39.135Z,4.50
2023-03-17T05:03:23.935Z,4.40
2023-03-17T05:06:01.756Z,3.40
2023-03-17T05:08:30.390Z,3.90
2023-03-17T05:10:59.181Z,3.40
2023-03-17T05:13:27.874Z,4.80
2023-03-17T05:15:56.980Z,2.20
2023-03-17T05:18:25.795Z,3.80
2023-03-17T05:20:55.268Z,2.40
2023-03-17T05:23:23.845Z,4.30
2023-03-17T05:25:57.549Z,4.20
2023-03-17T05:28:27.056Z,2.90
2023-03-17T05:30:55.483Z,3.40
2023-03-17T05:33:24.225Z,2.60
2023-03-17T05:35:53.970Z,3.90
2023-03-17T05:38:23.047Z,5.30
2023-03-17T05:40:52.988Z,4.50
2023-03-17T05:43:21.746Z,3.70
2023-03-17T05:45:50.899Z,3.40
2023-03-17T05:48:27.002Z,3.10
2023-03-17T05:50:56.003Z,2.60
2023-03-17T05:53:24.786Z,2.60
2023-03-17T05:55:53.687Z,3.80
2023-03-17T05:58:22.573Z,3.90
2023-03-17T06:00:56.384Z,2.80
2023-03-17T06:03:26.335Z,3.00
2023-03-17T06:05:54.780Z,3.80
2023-03-17T06:08:23.569Z,3.20
2023-03-17T06:10:54.529Z,3.80
2023-03-17T06:13:23.300Z,4.10
2023-03-17T06:15:54.184Z,3.60
2023-03-17T06:18:22.622Z,3.00
2023-03-17T06:20:53.766Z,4.60
2023-03-17T06:23:24.135Z,2.30
2023-03-17T06:25:52.405Z,3.50
2023-03-17T06:28:22.389Z,2.10
2023-03-17T06:30:51.222Z,2.40
2023-03-17T06:33:27.758Z,3.40
2023-03-17T06:35:58.967Z,1.90
2023-03-17T06:38:28.190Z,2.50
2023-03-17T06:40:58.322Z,3.90
2023-03-17T06:43:26.699Z,2.60
2023-03-17T06:45:56.511Z,3.10
2023-03-17T06:48:25.008Z,4.90
2023-03-17T06:50:53.788Z,4.70
2023-03-17T06:53:23.909Z,4.60
2023-03-17T06:55:52.200Z,4.20
2023-03-17T06:58:21.081Z,3.70
2023-03-17T07:00:49.675Z,1.80
2023-03-17T07:03:18.356Z,3.00
2023-03-17T07:05:47.141Z,3.40
2023-03-17T07:08:16.336Z,4.70
2023-03-17T07:10:46.163Z,4.50
2023-03-17T07:13:18.120Z,4.10
2023-03-17T07:15:46.905Z,4.10
2023-03-17T07:18:21.022Z,3.50
2023-03-17T07:20:50.967Z,4.80
2023-03-17T07:23:21.485Z,3.90
2023-03-17T07:25:50.903Z,4.60
2023-03-17T07:28:22.253Z,5.40
2023-03-17T07:30:53.476Z,6.30
2023-03-17T07:33:22.160Z,6.70
2023-03-17T07:35:51.403Z,4.70
2023-03-17T07:38:20.205Z,5.20
2023-03-17T07:40:49.156Z,4.00
2023-03-17T07:43:19.615Z,2.60
2023-03-17T07:45:48.414Z,3.80
2023-03-17T07:48:19.209Z,6.50
2023-03-17T07:50:48.701Z,4.10
2023-03-17T07:53:17.317Z,4.00
2023-03-17T07:55:49.458Z,4.20
2023-03-17T07:58:18.555Z,2.80
2023-03-17T08:00:48.775Z,5.10
2023-03-17T08:03:19.670Z,7.80
2023-03-17T08:05:53.501Z,4.00
2023-03-17T08:08:28.462Z,4.50
2023-03-17T08:11:04.329Z,3.80
2023-03-17T08:13:33.024Z,4.30
2023-03-17T08:16:02.224Z,4.30
2023-03-17T08:18:32.329Z,3.10
2023-03-17T08:21:00.705Z,6.50
2023-03-17T08:23:29.188Z,6.80
2023-03-17T08:26:02.172Z,7.30
2023-03-17T08:28:32.840Z,5.20
2023-03-17T08:31:13.840Z,5.60
2023-03-17T08:33:42.695Z,4.50
2023-03-17T08:36:11.682Z,5.10
2023-03-17T08:38:42.515Z,6.00
2023-03-17T08:41:15.062Z,3.90
2023-03-17T08:43:45.209Z,5.30
2023-03-17T08:46:21.949Z,5.90
2023-03-17T08:48:51.412Z,4.90
2023-03-17T08:51:24.550Z,3.50
2023-03-17T08:53:54.214Z,4.60
2023-03-17T08:56:22.992Z,3.40
2023-03-17T08:58:51.996Z,4.70
2023-03-17T09:01:23.386Z,2.60
2023-03-17T09:03:53.570Z,3.70
2023-03-17T09:06:25.827Z,2.80
2023-03-17T09:08:57.693Z,3.10
2023-03-17T09:11:28.226Z,5.90
2023-03-17T09:14:00.507Z,4.60
2023-03-17T09:16:34.325Z,4.30
2023-03-17T09:19:04.027Z,3.10
2023-03-17T09:21:32.396Z,3.00
2023-03-17T09:24:02.547Z,6.80
2023-03-17T09:26:31.405Z,3.10
2023-03-17T09:28:59.795Z,3.80
2023-03-17T09:31:28.593Z,4.50
2023-03-17T09:34:00.129Z,3.10
2023-03-17T09:36:28.714Z,4.60
2023-03-17T09:38:57.096Z,3.80
2023-03-17T09:41:58.043Z,4.30
2023-03-17T09:45:06.798Z,4.70
2023-03-17T09:47:56.853Z,6.10
2023-03-17T09:50:39.891Z,14.10
2023-03-17T09:53:15.836Z,6.00
2023-03-17T09:55:44.147Z,3.60
2023-03-17T09:58:13.724Z,2.70
2023-03-17T10:00:44.049Z,2.20
2023-03-17T10:03:13.659Z,2.60
2023-03-17T10:05:42.156Z,7.30
2023-03-17T10:08:31.753Z,4.60
2023-03-17T10:11:15.254Z,3.10
2023-03-17T10:14:18.355Z,3.00
2023-03-17T10:16:51.239Z,4.50
2023-03-17T10:19:41.885Z,5.80
2023-03-17T10:22:23.949Z,5.10
2023-03-17T10:24:54.791Z,2.90
2023-03-17T10:27:24.388Z,2.50
2023-03-17T10:29:54.110Z,3.60
2023-03-17T10:32:22.792Z,4.00
2023-03-17T10:34:54.548Z,3.00
2023-03-17T10:37:23.960Z,1.70
2023-03-17T10:39:57.368Z,4.00
2023-03-17T10:42:29.520Z,1.80
2023-03-17T10:45:17.155Z,3.00
2023-03-17T10:47:53.666Z,3.00
2023-03-17T10:50:35.620Z,2.20
2023-03-17T10:53:04.579Z,2.30
2023-03-17T10:55:39.159Z,4.20
2023-03-17T10:58:15.724Z,3.00
2023-03-17T11:00:57.253Z,3.10
2023-03-17T11:03:31.369Z,3.00
2023-03-17T11:06:06.935Z,3.80
2023-03-17T11:08:41.827Z,7.30
2023-03-17T11:11:23.697Z,6.90
2023-03-17T11:14:05.091Z,4.40
2023-03-17T11:19:20.586Z,2.30
2023-03-17T11:21:55.728Z,6.70
2023-03-17T11:24:33.773Z,4.50
2023-03-17T11:27:08.981Z,4.30
2023-03-17T11:29:39.910Z,6.60
2023-03-17T11:32:31.680Z,8.50
2023-03-17T11:35:22.138Z,6.20
2023-03-17T11:37:57.075Z,3.60
2023-03-17T11:41:01.396Z,17.10
2023-03-17T11:43:38.074Z,7.60
2023-03-17T11:46:09.972Z,9.80
2023-03-17T11:48:55.621Z,6.70
2023-03-17T11:51:28.296Z,15.30
2023-03-17T11:54:28.225Z,5.80
2023-03-17T11:57:03.314Z,3.70
2023-03-17T11:59:44.640Z,3.90
2023-03-17T12:02:39.030Z,3.70
2023-03-17T12:05:13.682Z,5.40
2023-03-17T12:07:55.655Z,3.70
2023-03-17T12:10:29.116Z,3.70
2023-03-17T12:13:11.565Z,3.90
2023-03-17T12:15:53.312Z,3.70
2023-03-17T12:18:37.820Z,3.70
2023-03-17T12:21:29.033Z,4.00
2023-03-17T12:24:02.245Z,3.80
2023-03-17T12:26:48.644Z,3.30
2023-03-17T12:29:38.106Z,2.20
2023-03-17T12:32:29.520Z,3.40
2023-03-17T12:35:22.196Z,3.10
2023-03-17T12:37:51.177Z,4.20
2023-03-17T12:40:36.550Z,3.10
2023-03-17T12:43:22.750Z,3.30
2023-03-17T12:45:57.301Z,2.60
2023-03-17T12:48:47.402Z,3.90
2023-03-17T12:51:50.888Z,2.70
2023-03-17T12:54:27.245Z,2.10
2023-03-17T12:57:02.066Z,3.50
2023-03-17T12:59:34.339Z,3.30
2023-03-17T13:02:29.033Z,3.70
2023-03-17T13:05:00.898Z,3.00
2023-03-17T13:07:51.398Z,3.20
2023-03-17T13:10:48.911Z,3.00
2023-03-17T13:13:40.794Z,3.30
2023-03-17T13:16:28.073Z,4.50
2023-03-17T13:19:27.232Z,3.70
2023-03-17T13:22:21.680Z,3.10
2023-03-17T13:24:51.964Z,4.00
2023-03-17T13:27:39.476Z,3.80
2023-03-17T13:30:24.640Z,3.40
2023-03-17T13:33:19.977Z,3.80
2023-03-17T13:36:10.165Z,3.50
2023-03-17T13:39:04.900Z,5.30
2023-03-17T13:42:11.915Z,4.10
2023-03-17T13:44:47.997Z,4.90
2023-03-17T13:47:22.932Z,3.70
2023-03-17T13:49:54.307Z,2.70
2023-03-17T13:52:33.787Z,3.30
2023-03-17T13:55:25.252Z,3.50
2023-03-17T13:58:11.696Z,4.00
2023-03-17T14:00:47.652Z,4.10
2023-03-17T14:03:27.757Z,3.90
2023-03-17T14:05:56.867Z,2.50
2023-03-17T14:08:39.066Z,3.60
2023-03-17T14:11:09.172Z,2.80
2023-03-17T14:13:56.932Z,2.40
2023-03-17T14:16:32.333Z,3.40
2023-03-17T14:19:21.334Z,2.90
2023-03-17T14:21:50.343Z,2.90
2023-03-17T14:24:45.333Z,2.20
2023-03-17T14:27:15.353Z,3.70
2023-03-17T14:29:44.038Z,3.10
2023-03-17T14:32:14.677Z,4.30
2023-03-17T14:34:44.935Z,6.10
2023-03-17T14:37:13.375Z,4.20
2023-03-17T14:39:50.148Z,2.50
2023-03-17T14:42:20.788Z,3.00
2023-03-17T14:44:49.215Z,4.40
2023-03-17T14:47:20.621Z,4.50
2023-03-17T14:49:49.107Z,2.90
2023-03-17T14:52:28.580Z,5.80
2023-03-17T14:54:58.392Z,4.00
2023-03-17T14:57:32.368Z,4.90
2023-03-17T15:00:05.359Z,4.70
2023-03-17T15:02:36.456Z,3.60
2023-03-17T15:07:41.051Z,3.20
2023-03-17T15:10:17.659Z,3.80
2023-03-17T15:12:47.431Z,3.80
2023-03-17T15:15:24.429Z,4.70
2023-03-17T15:17:55.081Z,4.40
2023-03-17T15:20:23.536Z,4.50
2023-03-17T15:23:22.351Z,5.00
2023-03-17T15:25:55.976Z,5.50
2023-03-17T15:28:29.553Z,4.20
2023-03-17T15:31:06.053Z,5.10
2023-03-17T15:33:38.580Z,3.50
2023-03-17T15:36:29.263Z,4.20
2023-03-17T15:39:01.315Z,3.80
2023-03-17T15:41:29.838Z,3.80
2023-03-17T15:43:58.214Z,4.20
2023-03-17T15:46:31.241Z,4.80
2023-03-17T15:49:00.202Z,6.50
2023-03-17T15:51:34.362Z,4.30
2023-03-17T15:54:05.677Z,5.70
2023-03-17T15:56:35.923Z,5.10
2023-03-17T15:59:04.999Z,7.10
2023-03-17T16:01:36.888Z,4.80
2023-03-17T16:04:09.256Z,4.40
2023-03-17T16:06:39.954Z,4.00
2023-03-17T16:09:14.785Z,4.20
2023-03-17T16:11:43.989Z,7.40
2023-03-17T16:14:12.409Z,8.00
2023-03-17T16:19:20.344Z,7.30
2023-03-17T16:21:49.299Z,5.10
2023-03-17T16:24:26.188Z,6.90
2023-03-17T16:26:54.541Z,6.70
2023-03-17T16:29:23.946Z,6.50
2023-03-17T16:31:52.431Z,4.20
2023-03-17T16:34:25.932Z,5.90
2023-03-17T16:36:55.237Z,4.90
2023-03-17T16:39:23.980Z,3.20
2023-03-17T16:41:53.734Z,5.90
2023-03-17T16:44:22.482Z,4.80
2023-03-17T16:46:53.730Z,4.70
2023-03-17T16:49:23.401Z,6.40
2023-03-17T16:51:51.985Z,6.00
2023-03-17T16:54:22.094Z,6.10
2023-03-17T16:56:51.081Z,6.70
2023-03-17T16:59:20.996Z,5.40
2023-03-17T17:01:49.501Z,4.70
2023-03-17T17:04:17.975Z,5.70
2023-03-17T17:06:47.475Z,5.00
2023-03-17T17:09:16.890Z,5.00
2023-03-17T17:11:45.469Z,6.90
2023-03-17T17:14:14.157Z,6.80
2023-03-17T17:16:43.561Z,3.80
2023-03-17T17:19:16.878Z,6.20
2023-03-17T17:21:45.560Z,6.70
2023-03-17T17:24:15.156Z,10.70
2023-03-17T17:26:44.253Z,7.00
2023-03-17T17:29:12.942Z,5.90
2023-03-17T17:31:41.402Z,6.10
2023-03-17T17:34:10.522Z,4.80
2023-03-17T17:36:40.968Z,7.40
2023-03-17T17:39:11.390Z,6.90
2023-03-17T17:41:40.694Z,9.00
2023-03-17T17:44:10.611Z,7.60
2023-03-17T17:46:39.520Z,6.20
2023-03-17T17:49:07.891Z,9.30
2023-03-17T17:51:40.861Z,9.10
2023-03-17T17:54:09.138Z,7.10
2023-03-17T17:56:40.429Z,9.00
2023-03-17T17:59:09.994Z,9.20
2023-03-17T18:01:39.749Z,7.30
2023-03-17T18:04:13.008Z,7.30
2023-03-17T18:06:43.226Z,7.40
2023-03-17T18:09:13.857Z,6.40
2023-03-17T18:11:43.467Z,5.80
2023-03-17T18:14:13.493Z,5.50
2023-03-17T18:16:42.003Z,8.10
2023-03-17T18:19:12.833Z,8.40
2023-03-17T18:21:42.214Z,6.50
2023-03-17T18:24:12.127Z,9.40
2023-03-17T18:26:41.837Z,7.30
2023-03-17T18:29:12.676Z,7.90
2023-03-17T18:31:47.373Z,7.60
2023-03-17T18:34:20.299Z,7.90
2023-03-17T18:36:52.462Z,6.80
2023-03-17T18:39:21.153Z,7.10
2023-03-17T18:41:49.737Z,8.00
2023-03-17T18:44:20.061Z,7.70
2023-03-17T18:46:49.890Z,10.40
2023-03-17T18:49:19.074Z,8.10
2023-03-17T18:51:47.556Z,7.80
2023-03-17T18:54:17.067Z,7.00
2023-03-17T18:56:47.801Z,8.80
2023-03-17T18:59:16.487Z,8.20
2023-03-17T19:01:44.971Z,6.20
2023-03-17T19:04:13.965Z,6.20
2023-03-17T19:06:43.066Z,8.20
2023-03-17T19:09:12.476Z,9.40
2023-03-17T19:11:43.205Z,7.30
2023-03-17T19:14:14.288Z,6.90
2023-03-17T19:16:49.536Z,10.10
2023-03-17T19:19:19.000Z,7.80
2023-03-17T19:21:47.477Z,8.00
2023-03-17T19:24:16.066Z,6.60
2023-03-17T19:26:45.466Z,7.50
2023-03-17T19:29:14.876Z,8.30
2023-03-17T19:31:43.555Z,7.20
2023-03-17T19:34:12.777Z,8.00
2023-03-17T19:36:42.420Z,7.50
2023-03-17T19:39:14.032Z,6.10
2023-03-17T19:41:42.509Z,6.20
2023-03-17T19:44:11.300Z,6.30
2023-03-17T19:46:39.892Z,6.80
2023-03-17T19:49:08.510Z,7.40
2023-03-17T19:51:37.370Z,5.80
2023-03-17T19:54:11.890Z,7.40
2023-03-17T19:56:42.727Z,10.90
2023-03-17T19:59:11.117Z,6.50
2023-03-17T20:01:42.305Z,7.40
2023-03-17T20:04:14.291Z,7.10
2023-03-17T20:06:47.013Z,8.10
2023-03-17T20:09:15.488Z,7.00
2023-03-17T20:11:43.867Z,9.00
2023-03-17T20:14:13.372Z,7.30
2023-03-17T20:16:42.680Z,8.60
2023-03-17T20:19:11.260Z,7.60
2023-03-17T20:21:42.306Z,10.60
2023-03-17T20:24:16.007Z,9.90
2023-03-17T20:26:52.072Z,6.80
2023-03-17T20:29:20.664Z,10.40
2023-03-17T20:31:49.240Z,10.70
2023-03-17T20:34:20.185Z,9.60
2023-03-17T20:36:48.769Z,9.90
2023-03-17T20:39:20.225Z,7.90
2023-03-17T20:41:49.637Z,9.30
2023-03-17T20:44:18.317Z,10.30
2023-03-17T20:46:47.804Z,9.10
2023-03-17T20:49:17.645Z,8.80
2023-03-17T20:54:15.216Z,8.80
2023-03-17T20:56:44.564Z,10.10
2023-03-17T20:59:13.660Z,10.20
2023-03-17T21:01:42.893Z,15.00
2023-03-17T21:04:18.277Z,8.70
2023-03-17T21:06:48.791Z,11.40
2023-03-17T21:09:17.174Z,11.00
2023-03-17T21:11:49.550Z,8.40
2023-03-17T21:14:17.928Z,12.10
2023-03-17T21:16:47.534Z,10.50
2023-03-17T21:19:20.017Z,9.30
2023-03-17T21:21:48.499Z,9.30
2023-03-17T21:24:28.580Z,10.70
2023-03-17T21:27:02.053Z,10.30
2023-03-17T21:29:31.454Z,11.40
2023-03-17T21:32:02.807Z,10.30
2023-03-17T21:37:01.559Z,9.80
2023-03-17T21:39:33.082Z,10.60
2023-03-17T21:42:02.422Z,12.80
2023-03-17T21:44:37.509Z,11.50
2023-03-17T21:47:06.710Z,9.80
2023-03-17T21:49:35.196Z,12.10
2023-03-17T21:52:04.763Z,11.30
2023-03-17T21:54:35.437Z,14.00
2023-03-17T21:57:05.875Z,12.50
2023-03-17T21:59:37.330Z,13.10
2023-03-17T22:02:06.210Z,11.50
2023-03-17T22:04:36.539Z,13.10
2023-03-17T22:07:05.634Z,16.40
2023-03-17T22:09:37.909Z,14.00
2023-03-17T22:12:08.242Z,13.20
2023-03-17T22:14:37.525Z,15.10
2023-03-17T22:17:06.534Z,16.30
2023-03-17T22:19:35.532Z,16.00
2023-03-17T22:22:05.242Z,13.20
2023-03-17T22:24:35.672Z,14.70
2023-03-17T22:27:05.421Z,10.70
2023-03-17T22:29:37.042Z,13.70
2023-03-17T22:32:06.674Z,11.70
2023-03-17T22:34:35.134Z,11.70
2023-03-17T22:37:04.512Z,14.30
2023-03-17T22:42:03.448Z,12.70
2023-03-17T22:44:32.138Z,12.30
2023-03-17T22:47:00.830Z,12.10
2023-03-17T22:49:30.128Z,10.10
2023-03-17T22:51:59.176Z,10.80
2023-03-17T22:54:27.721Z,15.20
2023-03-17T22:56:56.501Z,16.40
2023-03-17T22:59:26.317Z,11.20
2023-03-17T23:01:55.312Z,12.40
2023-03-17T23:04:24.917Z,11.90
2023-03-17T23:06:56.381Z,10.00
2023-03-17T23:09:25.774Z,10.90
2023-03-17T23:11:54.364Z,13.70
2023-03-17T23:14:22.746Z,11.50
2023-03-17T23:16:51.574Z,11.00
2023-03-17T23:19:21.038Z,12.30
2023-03-17T23:21:49.631Z,13.60
2023-03-17T23:24:18.005Z,11.10
2023-03-17T23:26:46.801Z,12.20
2023-03-17T23:29:16.302Z,10.20
2023-03-17T23:31:45.810Z,11.40
2023-03-17T23:37:01.205Z,11.30
2023-03-17T23:39:29.583Z,12.00
2023-03-17T23:41:58.489Z,12.30
2023-03-17T23:44:27.468Z,11.40
2023-03-17T23:46:56.361Z,11.90
2023-03-17T23:49:24.945Z,13.10
2023-03-17T23:51:53.529Z,12.10
2023-03-17T23:54:23.237Z,12.60
2023-03-17T23:56:53.261Z,10.30
2023-03-17T23:59:22.052Z,11.00
